Time;durP1;ratioP1;P1;durP2;ratioP2;P2;SDS_P1;SDS_P2;PMS_P1;PMS_P2;Temp;Humidity;BMP_temperature;BMP_pressure;BME280_temperature;BME280_humidity;BME280_pressure;Samples;Min_cycle;Max_cycle;Signal;HPM_P1;HPM_P2
2023/01/10 00:01:30;;;;;;;;;7.00;3.00;;;;;7.87;63.86;101441.66;5096576;27;45596;-71
2023/01/10 00:03:55;;;;;;;;;5.00;1.50;;;;;7.82;64.21;101427.63;5096130;27;46239;-68
2023/01/10 00:06:21;;;;;;;;;4.00;2.50;;;;;7.86;63.79;101437.31;5099159;27;45388;-68
2023/01/10 00:08:47;;;;;;;;;7.00;4.75;;;;;7.89;63.67;101439.09;5096097;27;45486;-71
2023/01/10 00:13:57;;;;;;;;;3.00;2.50;;;;;7.84;63.96;101457.25;5095612;27;46178;-70
2023/01/10 00:16:23;;;;;;;;;1.25;1.25;;;;;7.76;63.98;101430.06;5095540;27;45744;-71
2023/01/10 00:18:48;;;;;;;;;1.00;1.00;;;;;7.75;64.34;101438.75;5096446;27;45471;-69
2023/01/10 00:21:14;;;;;;;;;1.50;1.25;;;;;7.76;64.04;101445.72;5096763;27;45487;-67
2023/01/10 00:23:42;;;;;;;;;7.50;2.75;;;;;7.81;64.09;101471.09;5095560;27;46098;-70
2023/01/10 00:26:08;;;;;;;;;2.75;2.00;;;;;7.83;64.26;101463.28;5094536;27;45911;-68
2023/01/10 00:28:34;;;;;;;;;2.50;1.75;;;;;7.72;64.12;101446.50;5098056;27;45413;-67
2023/01/10 00:31:03;;;;;;;;;4.75;1.50;;;;;7.83;64.22;101477.22;5097770;27;46117;-66
2023/01/10 00:33:30;;;;;;;;;7.50;3.50;;;;;7.79;64.20;101478.00;5081580;27;46206;-69
2023/01/10 00:35:57;;;;;;;;;5.75;3.00;;;;;7.75;64.12;101475.25;5084331;27;45467;-68
2023/01/10 00:38:23;;;;;;;;;2.25;2.25;;;;;7.78;64.07;101489.28;5095543;27;45517;-68
2023/01/10 00:40:48;;;;;;;;;2.00;2.00;;;;;7.67;63.84;101471.59;5097498;27;45302;-69
2023/01/10 00:45:58;;;;;;;;;5.75;2.75;;;;;7.70;63.87;101482.09;5095213;27;45832;-65
2023/01/10 00:48:24;;;;;;;;;5.00;2.25;;;;;7.77;64.05;101492.72;5095770;27;45420;-69
2023/01/10 00:50:49;;;;;;;;;3.50;3.50;;;;;7.77;64.27;101502.25;5096235;27;45630;-66
2023/01/10 00:53:15;;;;;;;;;4.50;2.25;;;;;7.72;64.19;101490.84;5098139;27;45398;-66
2023/01/10 00:55:41;;;;;;;;;5.00;3.00;;;;;7.75;63.93;101503.94;5094916;27;45630;-68
2023/01/10 00:58:10;;;;;;;;;3.50;0.50;;;;;7.75;64.19;101509.16;5095026;27;45448;-67
2023/01/10 01:00:40;;;;;;;;;2.25;1.75;;;;;7.69;63.95;101504.69;5099017;27;45500;-67
2023/01/10 01:03:06;;;;;;;;;3.25;2.00;;;;;7.76;64.25;101510.91;5095320;27;45821;-66
2023/01/10 01:05:32;;;;;;;;;1.75;1.75;;;;;7.78;64.43;101515.34;5095063;27;45433;-67
2023/01/10 01:07:58;;;;;;;;;3.75;3.00;;;;;7.80;64.33;101516.25;5089572;27;45496;-68
2023/01/10 01:10:26;;;;;;;;;1.50;1.00;;;;;7.73;64.05;101503.91;5081354;27;45503;-67
2023/01/10 01:12:57;;;;;;;;;2.25;1.50;;;;;7.79;64.30;101514.50;5091628;27;45555;-67
2023/01/10 01:15:24;;;;;;;;;1.50;1.00;;;;;7.65;64.35;101493.28;5094066;27;45574;-68
2023/01/10 01:17:50;;;;;;;;;0.75;0.50;;;;;7.80;64.45;101528.41;5081120;27;45455;-66
2023/01/10 01:20:16;;;;;;;;;3.00;3.00;;;;;7.77;64.28;101525.72;5103957;27;45520;-67
2023/01/10 01:22:42;;;;;;;;;3.50;2.00;;;;;7.80;64.32;101533.63;5102208;27;47773;-67
2023/01/10 01:25:08;;;;;;;;;2.25;1.00;;;;;7.80;64.25;101544.06;5086078;27;45349;-66
2023/01/10 01:27:34;;;;;;;;;2.50;1.25;;;;;7.75;64.24;101528.28;5097985;27;45386;-66
2023/01/10 01:30:00;;;;;;;;;2.00;1.00;;;;;7.84;64.33;101544.19;5094501;27;45802;-66
2023/01/10 01:32:26;;;;;;;;;2.00;2.00;;;;;7.84;63.98;101548.53;5100309;27;47777;-66
2023/01/10 01:34:52;;;;;;;;;3.25;1.00;;;;;7.82;63.90;101552.81;5087128;27;45577;-65
2023/01/10 01:37:18;;;;;;;;;6.75;2.25;;;;;7.82;64.18;101558.91;5097595;27;45340;-65
2023/01/10 01:39:48;;;;;;;;;5.00;1.25;;;;;7.72;64.70;101554.28;5090513;27;45680;-66
2023/01/10 01:42:27;;;;;;;;;9.00;2.00;;;;;7.68;64.90;101555.03;5082595;27;46259;-66
2023/01/10 01:45:22;;;;;;;;;1.00;1.00;;;;;7.72;64.63;101558.63;5087863;27;45318;-67
2023/01/10 01:47:57;;;;;;;;;2.75;2.00;;;;;7.76;64.96;101565.69;5085020;27;45495;-66
2023/01/10 01:50:22;;;;;;;;;2.75;2.00;;;;;7.79;64.55;101557.97;5093296;27;45525;-66
2023/01/10 01:52:53;;;;;;;;;3.00;1.75;;;;;7.80;64.98;101570.13;5094359;27;45701;-65
2023/01/10 01:55:18;;;;;;;;;3.00;2.00;;;;;7.77;64.56;101563.13;5095540;27;45870;-67
2023/01/10 01:57:46;;;;;;;;;4.25;1.50;;;;;7.76;64.66;101557.84;5094878;27;45364;-66
2023/01/10 02:00:13;;;;;;;;;2.75;1.00;;;;;7.76;64.98;101561.38;5094932;27;46009;-66
2023/01/10 02:02:46;;;;;;;;;1.25;1.25;;;;;7.73;64.93;101560.38;5093212;27;45679;-68
2023/01/10 02:05:16;;;;;;;;;5.25;1.75;;;;;7.65;64.89;101563.66;5091467;27;45834;-67
2023/01/10 02:07:47;;;;;;;;;4.25;2.00;;;;;7.57;64.98;101570.41;5097284;27;45488;-66
2023/01/10 02:10:18;;;;;;;;;6.00;3.00;;;;;7.58;65.18;101571.28;5097405;27;45376;-67
2023/01/10 02:12:46;;;;;;;;;2.25;2.00;;;;;7.48;65.29;101564.06;5094042;27;46190;-66
2023/01/10 02:15:15;;;;;;;;;3.00;1.00;;;;;7.59;65.07;101583.47;5094391;27;45609;-68
2023/01/10 02:17:41;;;;;;;;;3.50;1.75;;;;;7.59;65.41;101587.00;5094416;27;45799;-67
2023/01/10 02:20:11;;;;;;;;;7.75;1.75;;;;;7.59;65.34;101592.19;5092587;27;45473;-68
2023/01/10 02:22:56;;;;;;;;;3.00;1.50;;;;;7.55;65.39;101594.69;5094162;27;46520;-67
2023/01/10 02:25:21;;;;;;;;;2.50;1.75;;;;;7.59;65.44;101604.31;5094150;27;45716;-67
2023/01/10 02:28:15;;;;;;;;;2.50;2.50;;;;;7.60;65.35;101608.72;5092208;27;45795;-66
2023/01/10 02:30:56;;;;;;;;;1.50;0.00;;;;;7.63;65.44;101608.81;5095680;27;45339;-65
2023/01/10 02:33:46;;;;;;;;;1.75;1.25;;;;;7.58;65.64;101607.78;5093340;27;45612;-67
2023/01/10 02:36:48;;;;;;;;;5.50;2.00;;;;;7.58;65.65;101619.09;5078396;27;45496;-67
2023/01/10 02:39:29;;;;;;;;;2.00;1.00;;;;;7.48;65.92;101616.19;5093848;27;45426;-67
2023/01/10 02:42:00;;;;;;;;;4.25;2.25;;;;;7.47;65.62;101615.28;5095269;27;45593;-67
2023/01/10 02:44:59;;;;;;;;;2.75;2.00;;;;;7.46;65.79;101610.06;5094923;27;45905;-66
2023/01/10 02:47:25;;;;;;;;;3.25;2.00;;;;;7.46;65.72;101618.75;5093790;27;45458;-66
2023/01/10 02:49:51;;;;;;;;;2.50;2.50;;;;;7.47;65.64;101620.50;5098370;27;45446;-66
2023/01/10 02:52:29;;;;;;;;;1.00;1.00;;;;;7.42;66.31;101632.53;5097035;27;45408;-66
2023/01/10 02:55:00;;;;;;;;;4.50;2.25;;;;;7.34;66.54;101641.84;5093427;27;46371;-66
2023/01/10 02:57:49;;;;;;;;;2.75;2.00;;;;;7.31;66.42;101644.34;5089465;27;45429;-66
2023/01/10 03:00:44;;;;;;;;;3.50;2.75;;;;;7.30;66.81;101645.19;5097741;27;45444;-65
2023/01/10 03:03:15;;;;;;;;;3.00;2.00;;;;;7.31;66.49;101649.56;5091832;27;45460;-67
2023/01/10 03:06:06;;;;;;;;;5.00;2.75;;;;;7.32;66.30;101648.75;5092032;27;47080;-65
2023/01/10 03:08:39;;;;;;;;;3.75;2.75;;;;;7.27;66.69;101643.38;5097990;27;45500;-66
2023/01/10 03:11:08;;;;;;;;;2.50;2.00;;;;;7.17;66.67;101607.47;5096357;27;45408;-66
2023/01/10 03:13:45;;;;;;;;;0.00;0.00;;;;;7.28;66.71;101626.91;5095917;27;45413;-66
2023/01/10 03:16:17;;;;;;;;;3.25;2.00;;;;;7.19;67.03;101629.25;5089754;27;46710;-67
2023/01/10 03:19:15;;;;;;;;;4.00;2.25;;;;;7.25;67.04;101629.44;5093313;27;45317;-65
2023/01/10 03:21:43;;;;;;;;;5.25;3.00;;;;;7.26;67.11;101618.19;5090601;27;45800;-66
2023/01/10 03:24:16;;;;;;;;;4.00;0.00;;;;;7.22;66.87;101609.38;5093928;27;45475;-67
2023/01/10 03:26:48;;;;;;;;;3.25;1.75;;;;;7.35;66.78;101628.84;5088031;27;46139;-66
2023/01/10 03:29:23;;;;;;;;;2.25;1.00;;;;;7.31;67.02;101624.41;5080768;27;45645;-67
2023/01/10 03:31:55;;;;;;;;;2.50;1.00;;;;;7.39;66.88;101640.25;5074015;27;45389;-66
2023/01/10 03:34:22;;;;;;;;;3.00;2.00;;;;;7.37;66.82;101637.59;5094095;27;45508;-67
2023/01/10 03:37:16;;;;;;;;;1.25;1.25;;;;;7.44;66.77;101649.09;5090028;27;46057;-66
2023/01/10 03:39:51;;;;;;;;;3.00;1.25;;;;;7.40;66.82;101645.53;5088136;27;45414;-66
2023/01/10 03:42:16;;;;;;;;;2.25;2.00;;;;;7.41;66.68;101655.09;5100554;27;45474;-66
2023/01/10 03:44:48;;;;;;;;;6.00;2.00;;;;;7.42;66.88;101658.59;5099856;27;45499;-67
2023/01/10 03:47:31;;;;;;;;;2.75;2.75;;;;;7.40;66.47;101653.34;5095402;27;46805;-67
2023/01/10 03:50:20;;;;;;;;;1.75;1.75;;;;;7.31;66.72;101655.69;5088244;27;45567;-65
2023/01/10 03:52:46;;;;;;;;;5.75;4.00;;;;;7.29;67.01;101662.56;5087857;27;45406;-65
2023/01/10 03:55:20;;;;;;;;;3.50;3.00;;;;;7.27;66.90;101663.34;5096668;27;45469;-65
2023/01/10 03:57:47;;;;;;;;;5.00;2.25;;;;;7.22;67.05;101673.63;5095104;27;47059;-66
2023/01/10 04:00:15;;;;;;;;;3.75;2.25;;;;;7.12;66.95;101677.69;5100286;27;45480;-66
2023/01/10 04:02:40;;;;;;;;;5.50;2.25;;;;;7.18;67.51;101677.84;5100859;27;45365;-66
2023/01/10 04:05:07;;;;;;;;;3.50;1.75;;;;;7.04;67.57;101663.53;5087811;27;45483;-65
2023/01/10 04:07:33;;;;;;;;;5.00;3.00;;;;;7.09;68.01;101682.78;5090175;27;47620;-66
2023/01/10 04:09:58;;;;;;;;;2.50;1.75;;;;;6.94;67.85;101667.56;5098535;27;45827;-67
2023/01/10 04:12:24;;;;;;;;;6.75;3.50;;;;;7.00;67.99;101679.91;5100070;27;45484;-66
2023/01/10 04:14:50;;;;;;;;;3.00;2.00;;;;;7.00;67.82;101672.97;5116537;27;45646;-67
2023/01/10 04:17:16;;;;;;;;;5.00;3.00;;;;;6.93;68.62;101681.44;5099243;27;45457;-66
2023/01/10 04:19:43;;;;;;;;;8.00;3.00;;;;;6.78;68.66;101676.59;5089974;27;45421;-65
2023/01/10 04:22:10;;;;;;;;;6.75;2.00;;;;;6.49;69.29;101659.13;5088644;27;45479;-66
2023/01/10 04:24:36;;;;;;;;;5.00;3.25;;;;;6.51;69.66;101670.50;5097078;27;45494;-66
2023/01/10 04:27:01;;;;;;;;;7.00;5.00;;;;;6.41;69.99;101671.00;5095273;27;45694;-66
2023/01/10 04:29:27;;;;;;;;;7.75;3.75;;;;;6.33;69.94;101671.63;5096265;27;45821;-67
2023/01/10 04:31:53;;;;;;;;;5.50;2.50;;;;;6.24;71.02;101683.44;5100169;27;45467;-67
2023/01/10 04:34:21;;;;;;;;;6.75;3.00;;;;;6.27;71.29;101696.56;5100412;27;45349;-67
2023/01/10 04:36:48;;;;;;;;;7.75;5.00;;;;;6.15;71.44;101676.22;5099866;27;45313;-67
2023/01/10 04:39:14;;;;;;;;;9.25;6.00;;;;;6.13;71.84;101696.06;5089350;27;45263;-68
2023/01/10 04:41:40;;;;;;;;;9.00;5.75;;;;;5.95;71.89;101688.50;5092999;27;45927;-67
2023/01/10 04:44:06;;;;;;;;;5.75;5.75;;;;;6.01;72.16;101691.31;5096205;27;45476;-69
2023/01/10 04:46:32;;;;;;;;;3.75;3.75;;;;;6.03;72.06;101687.06;5096994;27;47313;-66
2023/01/10 04:48:57;;;;;;;;;9.50;4.00;;;;;5.99;72.10;101682.56;5095150;27;45459;-66
2023/01/10 04:51:27;;;;;;;;;4.75;4.75;;;;;6.08;72.03;101689.81;5095013;27;45518;-65
2023/01/10 04:53:53;;;;;;;;;6.00;5.00;;;;;6.16;71.91;101694.44;5098473;27;45800;-66
2023/01/10 04:56:21;;;;;;;;;7.00;6.00;;;;;6.10;72.00;101682.97;5095217;27;46144;-66
2023/01/10 04:58:47;;;;;;;;;6.00;6.00;;;;;6.12;71.98;101689.09;5095404;27;45507;-67
2023/01/10 05:01:21;;;;;;;;;7.75;5.00;;;;;6.15;71.88;101686.63;5111623;27;45417;-66
2023/01/10 05:03:51;;;;;;;;;5.00;3.75;;;;;6.23;71.75;101684.28;5098132;27;46098;-66
2023/01/10 05:06:18;;;;;;;;;7.00;4.50;;;;;6.32;71.52;101692.41;5094406;27;45434;-68
2023/01/10 05:08:43;;;;;;;;;4.75;3.25;;;;;6.33;71.53;101684.63;5090830;27;45573;-67
2023/01/10 05:11:10;;;;;;;;;6.00;4.00;;;;;6.34;71.32;101681.22;5094676;27;45682;-66
2023/01/10 05:13:35;;;;;;;;;5.50;4.25;;;;;6.40;71.29;101687.47;5096399;27;45466;-66
2023/01/10 05:16:01;;;;;;;;;6.00;3.00;;;;;6.47;71.51;101681.63;5097303;27;45365;-67
2023/01/10 05:18:27;;;;;;;;;5.00;4.00;;;;;6.55;70.87;101683.66;5095183;27;45328;-67
2023/01/10 05:20:59;;;;;;;;;5.75;3.50;;;;;6.59;71.14;101667.28;5093170;27;45479;-67
2023/01/10 05:23:27;;;;;;;;;3.25;2.00;;;;;6.49;70.52;101641.81;5084685;27;45498;-67
2023/01/10 05:25:53;;;;;;;;;4.00;4.00;;;;;6.75;70.56;101679.09;5094392;27;46493;-67
2023/01/10 05:28:18;;;;;;;;;3.50;3.00;;;;;6.79;70.78;101680.97;5096174;27;45868;-68
2023/01/10 05:30:44;;;;;;;;;6.00;3.00;;;;;6.77;70.23;101682.66;5098634;27;46207;-67
2023/01/10 05:33:09;;;;;;;;;5.25;3.50;;;;;6.77;70.66;101687.84;5096032;27;45488;-67
2023/01/10 05:35:35;;;;;;;;;3.75;2.00;;;;;6.78;70.65;101683.53;5094023;27;46313;-66
2023/01/10 05:38:00;;;;;;;;;6.50;2.25;;;;;6.78;70.00;101678.31;5093683;27;45412;-67
2023/01/10 05:40:26;;;;;;;;;5.00;3.75;;;;;6.73;70.69;101693.78;5081555;27;45321;-66
2023/01/10 05:42:52;;;;;;;;;8.00;4.00;;;;;6.71;70.33;101685.03;5112455;27;45432;-66
2023/01/10 05:45:18;;;;;;;;;8.25;6.00;;;;;6.62;71.12;101689.06;5094071;27;45498;-66
2023/01/10 05:47:44;;;;;;;;;5.25;4.75;;;;;6.54;71.36;101688.81;5095204;27;45528;-66
2023/01/10 05:50:10;;;;;;;;;5.50;3.75;;;;;6.53;71.32;101693.13;5097629;27;45377;-67
2023/01/10 05:52:36;;;;;;;;;5.50;5.00;;;;;6.43;71.49;101678.06;5094898;27;45458;-67
2023/01/10 05:55:02;;;;;;;;;7.00;5.00;;;;;6.41;71.84;101668.38;5093778;27;45986;-66
2023/01/10 05:57:27;;;;;;;;;6.00;6.00;;;;;6.37;71.49;101665.69;5093325;27;45902;-66
2023/01/10 05:59:53;;;;;;;;;9.00;5.00;;;;;6.40;72.18;101687.47;5094724;27;45387;-66
2023/01/10 06:02:18;;;;;;;;;8.00;5.50;;;;;6.23;72.02;101669.53;5096907;27;45489;-65
2023/01/10 06:04:44;;;;;;;;;9.00;6.00;;;;;6.35;72.51;101684.69;5098480;27;46062;-67
2023/01/10 06:07:09;;;;;;;;;6.75;5.25;;;;;6.29;72.53;101661.97;5096597;27;46053;-67
2023/01/10 06:09:35;;;;;;;;;9.50;6.00;;;;;6.29;72.61;101674.09;5114570;27;45362;-66
2023/01/10 06:12:00;;;;;;;;;6.50;5.00;;;;;6.26;72.75;101669.63;5098352;27;45448;-66
2023/01/10 06:14:26;;;;;;;;;8.25;6.75;;;;;6.22;72.63;101669.50;5098456;27;45638;-67
2023/01/10 06:16:51;;;;;;;;;9.00;7.00;;;;;6.24;72.79;101662.63;5097056;27;45488;-66
2023/01/10 06:19:17;;;;;;;;;6.00;6.00;;;;;6.28;72.72;101673.19;5091896;27;45437;-66
2023/01/10 06:21:43;;;;;;;;;6.25;5.50;;;;;6.35;72.41;101675.16;5088947;27;45654;-65
2023/01/10 06:24:09;;;;;;;;;13.25;6.75;;;;;6.40;72.40;101677.03;5094144;27;45748;-67
2023/01/10 06:26:35;;;;;;;;;8.00;5.00;;;;;6.31;72.35;101662.91;5096645;27;45486;-66
2023/01/10 06:29:00;;;;;;;;;7.75;5.00;;;;;6.30;72.74;101650.72;5092377;27;45606;-66
2023/01/10 06:31:26;;;;;;;;;9.00;6.00;;;;;6.34;72.53;101669.94;5093831;27;45404;-66
2023/01/10 06:33:52;;;;;;;;;9.50;6.00;;;;;6.31;73.01;101662.91;5093807;27;45434;-67
2023/01/10 06:36:18;;;;;;;;;8.75;5.75;;;;;6.29;73.23;101682.78;5093452;27;45573;-66
2023/01/10 06:38:44;;;;;;;;;10.75;5.75;;;;;6.27;72.60;101680.97;5091705;27;45539;-66
2023/01/10 06:41:12;;;;;;;;;7.50;6.00;;;;;6.18;73.03;101676.31;5090126;27;45574;-66
2023/01/10 06:43:45;;;;;;;;;7.25;5.25;;;;;6.27;73.50;101691.38;5095492;27;46610;-67
2023/01/10 06:46:12;;;;;;;;;8.50;5.25;;;;;6.20;73.31;101685.06;5093605;27;45387;-66
2023/01/10 06:48:38;;;;;;;;;10.75;8.00;;;;;6.23;73.17;101697.28;5091975;27;45499;-67
2023/01/10 06:51:04;;;;;;;;;10.25;7.00;;;;;6.15;73.88;101690.09;5096028;27;45382;-66
2023/01/10 06:53:31;;;;;;;;;7.00;5.00;;;;;6.08;73.76;101685.50;5093142;27;46198;-67
2023/01/10 06:55:57;;;;;;;;;10.00;5.50;;;;;6.18;73.78;101699.72;5093404;27;45439;-67
2023/01/10 06:58:23;;;;;;;;;9.00;6.50;;;;;6.14;74.08;101690.91;5095973;27;45407;-66
2023/01/10 07:00:49;;;;;;;;;7.25;6.50;;;;;6.13;74.18;101691.75;5096212;27;46307;-67
2023/01/10 07:03:15;;;;;;;;;12.75;6.75;;;;;6.17;73.83;101690.16;5093464;27;46451;-66
2023/01/10 07:05:41;;;;;;;;;10.75;9.25;;;;;6.22;73.67;101687.72;5092894;27;45451;-66
2023/01/10 07:08:06;;;;;;;;;8.50;7.50;;;;;6.23;73.91;101685.16;5100044;27;47001;-66
2023/01/10 07:10:32;;;;;;;;;7.00;5.00;;;;;6.21;74.28;101688.53;5093153;27;45505;-67
2023/01/10 07:12:58;;;;;;;;;4.75;4.00;;;;;6.25;73.69;101686.09;5112151;27;47044;-67
2023/01/10 07:15:25;;;;;;;;;8.00;6.75;;;;;6.28;73.53;101683.59;5115462;27;45445;-66
2023/01/10 07:17:50;;;;;;;;;9.50;7.75;;;;;6.31;73.19;101694.13;5100565;27;45321;-66
2023/01/10 07:20:16;;;;;;;;;9.75;6.25;;;;;6.22;73.95;101675.59;5084618;27;45336;-67
2023/01/10 07:22:42;;;;;;;;;7.50;6.75;;;;;6.25;73.37;101670.50;5094690;27;45760;-67
2023/01/10 07:25:08;;;;;;;;;7.50;5.00;;;;;6.15;73.96;101665.81;5094979;27;45417;-66
2023/01/10 07:27:33;;;;;;;;;8.00;5.00;;;;;6.16;73.70;101671.03;5096663;27;45656;-67
2023/01/10 07:29:59;;;;;;;;;6.25;5.50;;;;;6.20;73.53;101674.66;5099873;27;45408;-67
2023/01/10 07:32:25;;;;;;;;;11.00;6.50;;;;;6.10;74.44;101667.38;5100137;27;45609;-67
2023/01/10 07:34:51;;;;;;;;;6.00;6.00;;;;;6.15;73.93;101678.81;5096551;27;45391;-67
2023/01/10 07:37:16;;;;;;;;;8.25;6.00;;;;;6.02;74.15;101661.00;5097050;27;45788;-69
2023/01/10 07:39:42;;;;;;;;;8.75;5.75;;;;;6.09;73.88;101666.47;5095494;27;45481;-67
2023/01/10 07:42:08;;;;;;;;;13.25;6.25;;;;;6.11;74.21;101671.72;5096330;27;45927;-66
2023/01/10 07:44:34;;;;;;;;;8.00;6.25;;;;;6.12;74.23;101670.88;5094370;27;45707;-67
2023/01/10 07:46:59;;;;;;;;;8.50;5.25;;;;;6.13;74.63;101672.66;5111740;27;45451;-67
2023/01/10 07:49:25;;;;;;;;;8.00;4.50;;;;;6.03;74.06;101649.78;5096223;27;45475;-67
2023/01/10 07:51:50;;;;;;;;;8.50;5.50;;;;;6.04;74.84;101662.81;5095286;27;45659;-67
2023/01/10 07:54:16;;;;;;;;;7.75;5.25;;;;;6.14;74.17;101669.22;5100211;27;45524;-67
2023/01/10 07:56:42;;;;;;;;;9.00;6.00;;;;;6.12;74.12;101663.06;5100092;27;45602;-66
2023/01/10 07:59:07;;;;;;;;;8.75;7.50;;;;;5.99;74.68;101653.97;5100350;27;45569;-67
2023/01/10 08:01:33;;;;;;;;;10.25;8.00;;;;;6.03;74.13;101657.56;5100309;27;45970;-67
2023/01/10 08:03:58;;;;;;;;;11.25;7.25;;;;;6.04;74.45;101673.22;5100257;27;45511;-68
2023/01/10 08:06:24;;;;;;;;;7.50;6.00;;;;;6.09;74.96;101676.84;5098732;27;45465;-67
2023/01/10 08:08:50;;;;;;;;;15.25;9.25;;;;;6.06;74.59;101666.34;5092480;27;45517;-66
2023/01/10 08:11:16;;;;;;;;;7.00;6.00;;;;;6.16;73.87;101678.84;5086724;27;46749;-67
2023/01/10 08:13:41;;;;;;;;;11.00;7.75;;;;;6.18;74.03;101673.72;5094617;27;45685;-67
2023/01/10 08:16:07;;;;;;;;;8.75;7.00;;;;;6.17;74.25;101669.34;5107231;27;45501;-66
2023/01/10 08:18:33;;;;;;;;;9.75;8.00;;;;;6.13;74.33;101672.66;5094254;27;45601;-67
2023/01/10 08:20:59;;;;;;;;;16.00;8.50;;;;;6.14;74.81;101675.31;5095101;27;45478;-67
2023/01/10 08:23:26;;;;;;;;;9.25;7.00;;;;;6.18;74.67;101676.31;5086174;27;45392;-67
2023/01/10 08:25:53;;;;;;;;;8.50;8.00;;;;;6.15;74.81;101674.47;5093841;27;45571;-66
2023/01/10 08:28:18;;;;;;;;;11.25;7.25;;;;;6.20;74.55;101686.78;5095823;27;45570;-66
2023/01/10 08:30:44;;;;;;;;;11.25;8.75;;;;;6.13;74.61;101678.75;5095737;27;46004;-66
2023/01/10 08:33:11;;;;;;;;;14.25;9.00;;;;;6.21;74.70;101691.13;5095766;27;45822;-65
2023/01/10 08:35:42;;;;;;;;;16.75;9.25;;;;;6.23;74.46;101686.88;5098084;27;45483;-66
2023/01/10 08:38:09;;;;;;;;;13.50;9.50;;;;;6.19;74.80;101683.25;5093623;27;45696;-65
2023/01/10 08:40:35;;;;;;;;;10.00;9.25;;;;;6.14;75.03;101669.22;5098721;27;46916;-66
2023/01/10 08:43:06;;;;;;;;;15.75;9.00;;;;;6.13;74.88;101670.06;5095398;27;45429;-67
2023/01/10 08:45:33;;;;;;;;;13.75;10.75;;;;;6.21;74.73;101676.41;5098956;27;45594;-67
2023/01/10 08:47:59;;;;;;;;;14.25;9.25;;;;;6.08;75.35;101659.50;5114802;27;45547;-67
2023/01/10 08:50:25;;;;;;;;;10.75;8.00;;;;;6.18;75.04;101660.69;5093915;27;48099;-68
2023/01/10 08:52:50;;;;;;;;;16.75;9.00;;;;;6.20;75.24;101671.16;5095328;27;45294;-67
2023/01/10 08:55:18;;;;;;;;;11.50;10.00;;;;;6.24;75.47;101676.53;5093953;27;45448;-67
2023/01/10 08:57:44;;;;;;;;;10.75;9.00;;;;;6.19;74.80;101661.56;5095934;27;45428;-67
2023/01/10 09:00:11;;;;;;;;;9.50;7.25;;;;;6.14;75.56;101664.91;5094443;27;46113;-68
2023/01/10 09:02:38;;;;;;;;;12.75;10.00;;;;;6.30;75.51;101692.34;5110884;27;45490;-66
2023/01/10 09:05:04;;;;;;;;;10.25;6.00;;;;;6.31;75.73;101688.91;5094808;27;45494;-67
2023/01/10 09:07:30;;;;;;;;;12.50;9.00;;;;;6.34;75.67;101683.81;5093156;27;45568;-66
2023/01/10 09:09:55;;;;;;;;;12.25;7.50;;;;;6.33;76.07;101681.16;5089544;27;46906;-65
2023/01/10 09:15:05;;;;;;;;;12.25;8.25;;;;;6.39;76.53;101683.97;5094931;27;45435;-66
2023/01/10 09:17:31;;;;;;;;;13.00;8.00;;;;;6.31;76.55;101665.50;5094982;27;45360;-67
2023/01/10 09:19:56;;;;;;;;;13.25;10.00;;;;;6.41;77.01;101678.81;5093329;27;47673;-68
2023/01/10 09:22:22;;;;;;;;;13.75;10.75;;;;;6.29;77.16;101656.75;5093204;27;45485;-67
2023/01/10 09:24:48;;;;;;;;;10.50;8.50;;;;;6.43;77.31;101674.53;5094604;27;45423;-67
2023/01/10 09:27:14;;;;;;;;;13.00;9.25;;;;;6.39;77.33;101664.88;5094279;27;45435;-68
2023/01/10 09:29:40;;;;;;;;;12.00;9.75;;;;;6.44;77.90;101668.53;5094277;27;45539;-66
2023/01/10 09:32:06;;;;;;;;;13.00;9.25;;;;;6.50;77.74;101672.22;5075074;27;45357;-66
2023/01/10 09:34:31;;;;;;;;;12.00;10.00;;;;;6.39;77.54;101647.53;5092258;27;46007;-66
2023/01/10 09:36:57;;;;;;;;;14.25;11.25;;;;;6.53;77.93;101663.63;5097357;27;45452;-67
2023/01/10 09:39:22;;;;;;;;;14.00;11.50;;;;;6.52;78.51;101659.22;5086666;27;45377;-66
2023/01/10 09:42:04;;;;;;;;;9.50;9.00;;;;;6.57;78.19;101655.06;5092368;27;45507;-67
2023/01/10 09:45:02;;;;;;;;;11.75;7.50;;;;;6.56;78.53;101656.78;5111106;27;45580;-67
2023/01/10 09:47:52;;;;;;;;;10.75;9.75;;;;;6.56;78.88;101653.31;5097337;27;45380;-67
2023/01/10 09:50:45;;;;;;;;;16.50;9.75;;;;;6.57;79.27;101648.16;5096504;27;46236;-68
2023/01/10 09:53:19;;;;;;;;;13.00;11.00;;;;;6.56;79.61;101648.97;5094450;27;45807;-67
2023/01/10 09:55:52;;;;;;;;;12.00;10.25;;;;;6.57;79.58;101639.44;5094303;27;45517;-67
2023/01/10 09:58:20;;;;;;;;;13.25;9.25;;;;;6.62;79.20;101631.78;5093994;27;45432;-67
2023/01/10 10:00:52;;;;;;;;;11.50;9.25;;;;;6.73;79.58;101646.03;5092718;27;46819;-67
2023/01/10 10:03:41;;;;;;;;;13.75;9.00;;;;;6.70;79.33;101633.81;5095371;27;45516;-67
2023/01/10 10:06:11;;;;;;;;;13.75;11.00;;;;;6.73;79.71;101631.28;5097129;27;45547;-67
2023/01/10 10:08:38;;;;;;;;;7.50;7.00;;;;;6.84;79.39;101634.25;5095275;27;45704;-66
2023/01/10 10:11:26;;;;;;;;;11.50;7.75;;;;;6.93;79.36;101631.94;5093781;27;45463;-67
2023/01/10 10:14:10;;;;;;;;;15.25;8.00;;;;;6.98;79.38;101648.59;5093592;27;45699;-67
2023/01/10 10:17:07;;;;;;;;;7.50;6.75;;;;;6.97;79.40;101645.94;5093758;27;45590;-66
2023/01/10 10:20:05;;;;;;;;;7.00;7.00;;;;;6.92;79.71;101657.94;5094091;27;45756;-68
2023/01/10 10:22:44;;;;;;;;;11.25;9.00;;;;;6.91;79.72;101643.16;5092986;27;45836;-66
2023/01/10 10:25:44;;;;;;;;;9.50;8.00;;;;;6.92;79.87;101640.56;5093987;27;45639;-67
2023/01/10 10:28:30;;;;;;;;;9.00;7.50;;;;;6.91;80.28;101637.94;5094369;27;45687;-66
2023/01/10 10:31:09;;;;;;;;;12.75;9.00;;;;;6.87;80.74;101636.94;5096044;27;45505;-67
2023/01/10 10:34:04;;;;;;;;;7.00;6.50;;;;;6.85;80.42;101593.47;5098244;27;45446;-68
2023/01/10 10:36:43;;;;;;;;;8.25;6.50;;;;;6.90;80.24;101589.28;5093200;27;45560;-66
2023/01/10 10:39:15;;;;;;;;;6.75;6.25;;;;;7.00;80.56;101601.78;5085549;27;45323;-67
2023/01/10 10:41:44;;;;;;;;;11.75;6.25;;;;;7.06;80.16;101590.63;5095132;27;45287;-66
2023/01/10 10:44:47;;;;;;;;;12.00;6.50;;;;;7.07;80.54;101575.06;5091525;27;45556;-65
2023/01/10 10:47:18;;;;;;;;;10.75;8.00;;;;;7.08;80.60;101576.81;5077047;27;45581;-71
2023/01/10 10:49:49;;;;;;;;;11.00;7.75;;;;;7.10;80.81;101564.72;5076456;27;45558;-66
2023/01/10 10:52:23;;;;;;;;;8.25;8.25;;;;;7.09;81.19;101565.56;5076539;27;45770;-69
2023/01/10 10:54:50;;;;;;;;;10.50;7.25;;;;;6.87;81.03;101516.28;5076454;27;46446;-66
2023/01/10 10:57:16;;;;;;;;;11.50;8.00;;;;;7.13;80.41;101538.75;5076625;27;45680;-66
2023/01/10 10:59:45;;;;;;;;;10.25;9.75;;;;;7.22;81.15;101549.44;5076648;27;45747;-67
2023/01/10 11:02:31;;;;;;;;;15.50;9.25;;;;;7.18;81.34;101555.41;5077089;27;45671;-66
2023/01/10 11:05:00;;;;;;;;;11.50;7.75;;;;;7.09;81.41;101539.50;5076518;27;45483;-67
2023/01/10 11:07:31;;;;;;;;;10.00;8.50;;;;;7.15;81.02;101555.31;5075098;27;45500;-66
2023/01/10 11:10:14;;;;;;;;;11.00;8.00;;;;;7.10;81.42;101543.00;5076037;27;45439;-66
2023/01/10 11:12:46;;;;;;;;;12.00;8.75;;;;;7.18;80.92;101550.19;5076127;27;46028;-66
2023/01/10 11:15:42;;;;;;;;;11.75;7.50;;;;;7.21;80.95;101529.47;5078069;27;45522;-68
2023/01/10 11:18:14;;;;;;;;;15.50;10.00;;;;;7.14;80.95;101509.28;5080789;27;45413;-67
2023/01/10 11:21:09;;;;;;;;;9.25;7.75;;;;;7.16;81.99;101520.59;5080513;27;45430;-67
2023/01/10 11:23:52;;;;;;;;;10.00;7.50;;;;;7.14;81.65;101508.38;5085681;27;45591;-66
2023/01/10 11:26:24;;;;;;;;;8.00;7.25;;;;;7.17;82.08;101509.34;5076020;27;45853;-66
2023/01/10 11:29:06;;;;;;;;;13.25;9.25;;;;;7.15;82.62;101500.59;5081569;27;45551;-64
2023/01/10 11:31:33;;;;;;;;;10.75;8.00;;;;;7.14;82.44;101471.91;5086431;27;45453;-65
2023/01/10 11:34:04;;;;;;;;;9.25;7.50;;;;;7.20;82.73;101480.78;5100063;27;45660;-66
2023/01/10 11:37:00;;;;;;;;;12.00;7.25;;;;;7.22;82.64;101476.50;5081877;27;48282;-68
2023/01/10 11:39:26;;;;;;;;;13.75;11.75;;;;;7.26;82.58;101472.25;5083995;27;45789;-67
2023/01/10 11:41:54;;;;;;;;;9.75;9.00;;;;;7.16;83.18;101459.81;5094804;27;45468;-67
2023/01/10 11:44:23;;;;;;;;;14.00;9.00;;;;;7.26;83.47;101463.53;5095629;27;45715;-67
2023/01/10 11:46:53;;;;;;;;;16.75;9.75;;;;;7.27;83.94;101458.38;5094433;27;47579;-66
2023/01/10 11:49:39;;;;;;;;;11.00;7.25;;;;;7.33;83.65;101462.84;5096399;27;45513;-68
2023/01/10 11:52:24;;;;;;;;;10.25;8.25;;;;;7.33;83.83;101457.66;5112194;27;45377;-67
2023/01/10 11:54:53;;;;;;;;;8.00;7.00;;;;;7.25;84.09;101430.53;5111262;27;45428;-66